»·PEaware :: SKY266 KFHR-KORS

SKY266 :: KFHR-KORS

FLIGHT INFORMATION

Flight Status: Arrived
Operator:
Sky High Charters
More flights by this operator :: More flights under this callsign
Pilot: Magnus A. (27892)
Aircraft: BRITTEN NORMAN BN-2 ISLANDER DEFENDER
(BN2P)
More flights by this aircraft type
Origin: KFHR Friday Harbor
United States
Destination: KORS Orcas Island
United States
More flights between these airports :: More routes between these airports
Route: FHR OKAYA
File this flight plan on PilotEdge
Remarks: SCENARIO 3
Altitude:
(Current/Filed)
5,000ft
Speed:
(Current/Filed)
130kts
Departed: 10-May-20 10:31 AM
Arrived: 10-May-20 10:43 AM
Distance/Time
Traveled:
12nm/0:12
Distance/Time
To Go:
Arrived

Flight Plot

Page will automatically refresh every two minutes.

Flight plan parsing failed; only flown route is shown


Map Options




Map Legend


Flown Route
Filed Route
Departure Airport
Arrival Airport
Navaid (VOR, NDB)
Fix

Horizontal Profiles

Position Reports

Time Latitude Longitude Heading Altitude Ground
Speed
10-May-20 09:58 48.524288 -123.026009 354 113ft 0kts
10-May-20 09:59 48.524288 -123.026009 354 113ft 0kts
10-May-20 10:00 48.524288 -123.026009 354 113ft 0kts
10-May-20 10:01 48.524288 -123.026009 354 113ft 0kts
10-May-20 10:02 48.524288 -123.026009 354 113ft 0kts
10-May-20 10:03 48.524288 -123.026009 354 113ft 0kts
10-May-20 10:04 48.524288 -123.026009 354 113ft 0kts
10-May-20 10:05 48.524288 -123.026009 354 113ft 0kts
10-May-20 10:06 48.524288 -123.026009 354 113ft 0kts
10-May-20 10:07 48.524288 -123.026009 354 113ft 0kts
10-May-20 10:08 48.524288 -123.026009 354 113ft 0kts
10-May-20 10:09 48.524288 -123.026009 354 113ft 0kts
10-May-20 10:10 48.524288 -123.026009 354 113ft 0kts
10-May-20 10:11 48.524288 -123.026009 354 113ft 0kts
10-May-20 10:13 48.524288 -123.026009 354 113ft 0kts
10-May-20 10:14 48.523932 -123.025109 178 107ft 10kts
10-May-20 10:15 48.521035 -123.024909 177 98ft 8kts
10-May-20 10:16 48.518227 -123.024698 178 92ft 16kts
10-May-20 10:17 48.517331 -123.024629 96 87ft 0kts
10-May-20 10:18 48.517331 -123.024629 96 87ft 0kts
10-May-20 10:19 48.517331 -123.024629 96 87ft 0kts
10-May-20 10:20 48.517331 -123.024629 96 87ft 0kts
10-May-20 10:21 48.517331 -123.024629 96 87ft 0kts
10-May-20 10:22 48.517331 -123.024629 96 87ft 0kts
10-May-20 10:23 48.517331 -123.024629 96 87ft 0kts
10-May-20 10:24 48.517331 -123.024629 96 87ft 0kts
10-May-20 10:25 48.517331 -123.024629 96 87ft 0kts
10-May-20 10:26 48.517331 -123.024629 96 87ft 0kts
10-May-20 10:27 48.517331 -123.024629 96 87ft 0kts
10-May-20 10:28 48.517331 -123.024629 96 87ft 0kts
10-May-20 10:29 48.517331 -123.024629 96 87ft 0kts
10-May-20 10:30 48.517480 -123.024062 23 84ft 7kts
10-May-20 10:31 48.536750 -123.026124 355 857ft 97kts
10-May-20 10:31 48.556352 -123.041576 276 1763ft 113kts
10-May-20 10:33 48.533540 -123.045167 137 3424ft 84kts
10-May-20 10:34 48.511239 -123.021089 118 4242ft 117kts
10-May-20 10:34 48.520001 -122.984514 63 4676ft 121kts
10-May-20 10:36 48.537259 -122.924332 65 4435ft 151kts
10-May-20 10:36 48.550290 -122.875798 60 3209ft 152kts
10-May-20 10:37 48.583575 -122.863169 347 2515ft 120kts
10-May-20 10:38 48.613503 -122.875473 344 2198ft 96kts
10-May-20 10:39 48.642039 -122.887613 344 1607ft 118kts
10-May-20 10:40 48.674399 -122.901399 344 799ft 121kts
10-May-20 10:41 48.696101 -122.910412 351 238ft 62kts
10-May-20 10:42 48.707260 -122.910403 72 30ft 12kts
10-May-20 10:43 48.706096 -122.909723 179 34ft 5kts
10-May-20 10:44 48.705988 -122.909463 358 34ft 0kts
10-May-20 10:45 48.705988 -122.909463 358 34ft 0kts
10-May-20 10:46 48.705988 -122.909463 358 34ft 0kts
10-May-20 10:47 48.705988 -122.909463 358 34ft 0kts
10-May-20 10:48 48.705988 -122.909463 358 34ft 0kts
10-May-20 10:49 48.705988 -122.909463 358 34ft 0kts
10-May-20 10:50 48.705988 -122.909463 358 34ft 0kts
10-May-20 10:51 48.705988 -122.909463 358 34ft 0kts
10-May-20 10:52 48.705988 -122.909463 358 34ft 0kts
10-May-20 10:53 48.705988 -122.909463 358 34ft 0kts
10-May-20 10:54 48.705988 -122.909463 358 34ft 0kts
10-May-20 10:55 48.705988 -122.909463 358 34ft 0kts
10-May-20 10:56 48.705988 -122.909463 358 34ft 0kts

Navigation Log

Ident Type
Flight plan parsing failed, navigation log unavailable